sensor_id;sensor_type;location;lat;lon;timestamp;temperature;humidity
16384;DHT22;8301;51.440;6.610;2023-05-07T00:00:35;14.90;99.90
16384;DHT22;8301;51.440;6.610;2023-05-07T00:03:02;14.90;99.90
16384;DHT22;8301;51.440;6.610;2023-05-07T00:05:29;14.80;99.90
16384;DHT22;8301;51.440;6.610;2023-05-07T00:07:56;14.80;99.90
16384;DHT22;8301;51.440;6.610;2023-05-07T00:10:23;14.90;99.90
16384;DHT22;8301;51.440;6.610;2023-05-07T00:12:49;14.90;99.90
16384;DHT22;8301;51.440;6.610;2023-05-07T00:15:16;14.90;99.90
16384;DHT22;8301;51.440;6.610;2023-05-07T00:17:43;14.90;99.90
16384;DHT22;8301;51.440;6.610;2023-05-07T00:20:10;14.90;99.90
16384;DHT22;8301;51.440;6.610;2023-05-07T00:22:37;14.90;99.90
16384;DHT22;8301;51.440;6.610;2023-05-07T00:25:04;14.90;99.90
16384;DHT22;8301;51.440;6.610;2023-05-07T00:27:31;14.90;99.90
16384;DHT22;8301;51.440;6.610;2023-05-07T00:29:58;14.90;99.90
16384;DHT22;8301;51.440;6.610;2023-05-07T00:32:25;14.90;99.90
16384;DHT22;8301;51.440;6.610;2023-05-07T00:34:52;14.90;99.90
16384;DHT22;8301;51.440;6.610;2023-05-07T00:37:18;14.90;99.90
16384;DHT22;8301;51.440;6.610;2023-05-07T00:39:45;14.90;99.90
16384;DHT22;8301;51.440;6.610;2023-05-07T00:42:12;14.90;99.90
16384;DHT22;8301;51.440;6.610;2023-05-07T00:44:40;14.90;99.90
16384;DHT22;8301;51.440;6.610;2023-05-07T00:47:07;14.90;99.90
16384;DHT22;8301;51.440;6.610;2023-05-07T00:49:38;14.80;99.90
16384;DHT22;8301;51.440;6.610;2023-05-07T00:52:02;14.80;99.90
16384;DHT22;8301;51.440;6.610;2023-05-07T00:54:29;14.80;99.90
16384;DHT22;8301;51.440;6.610;2023-05-07T00:56:56;14.80;99.90
16384;DHT22;8301;51.440;6.610;2023-05-07T00:59:23;14.80;99.90
16384;DHT22;8301;51.440;6.610;2023-05-07T01:01:50;14.80;99.90
16384;DHT22;8301;51.440;6.610;2023-05-07T01:04:18;14.80;99.90
16384;DHT22;8301;51.440;6.610;2023-05-07T01:06:45;14.80;99.90
16384;DHT22;8301;51.440;6.610;2023-05-07T01:09:12;14.70;99.90
16384;DHT22;8301;51.440;6.610;2023-05-07T01:11:39;14.70;99.90
16384;DHT22;8301;51.440;6.610;2023-05-07T01:14:06;14.70;99.90
16384;DHT22;8301;51.440;6.610;2023-05-07T01:16:33;14.60;99.90
16384;DHT22;8301;51.440;6.610;2023-05-07T01:19:00;14.60;99.90
16384;DHT22;8301;51.440;6.610;2023-05-07T01:21:27;14.60;99.90
16384;DHT22;8301;51.440;6.610;2023-05-07T01:23:56;14.60;99.90
16384;DHT22;8301;51.440;6.610;2023-05-07T01:26:23;14.60;99.90
16384;DHT22;8301;51.440;6.610;2023-05-07T01:28:50;14.60;99.90
16384;DHT22;8301;51.440;6.610;2023-05-07T01:31:17;14.60;99.90
16384;DHT22;8301;51.440;6.610;2023-05-07T01:33:44;14.60;99.90
16384;DHT22;8301;51.440;6.610;2023-05-07T01:36:11;14.60;99.90
16384;DHT22;8301;51.440;6.610;2023-05-07T01:38:38;14.60;99.90
16384;DHT22;8301;51.440;6.610;2023-05-07T01:41:06;14.50;99.90
16384;DHT22;8301;51.440;6.610;2023-05-07T01:43:33;14.50;99.90
16384;DHT22;8301;51.440;6.610;2023-05-07T01:46:00;14.50;99.90
16384;DHT22;8301;51.440;6.610;2023-05-07T01:48:28;14.40;99.90
16384;DHT22;8301;51.440;6.610;2023-05-07T01:50:55;14.40;99.90
16384;DHT22;8301;51.440;6.610;2023-05-07T01:53:22;14.30;99.90
16384;DHT22;8301;51.440;6.610;2023-05-07T01:55:50;14.20;99.90
16384;DHT22;8301;51.440;6.610;2023-05-07T01:58:17;14.20;99.90
16384;DHT22;8301;51.440;6.610;2023-05-07T02:00:43;14.20;99.90
16384;DHT22;8301;51.440;6.610;2023-05-07T02:03:10;14.20;99.90
16384;DHT22;8301;51.440;6.610;2023-05-07T02:05:37;14.20;99.90
16384;DHT22;8301;51.440;6.610;2023-05-07T02:08:04;14.10;99.90
16384;DHT22;8301;51.440;6.610;2023-05-07T02:10:31;14.20;99.90
16384;DHT22;8301;51.440;6.610;2023-05-07T02:12:58;14.20;99.90
16384;DHT22;8301;51.440;6.610;2023-05-07T02:15:26;14.20;99.90
16384;DHT22;8301;51.440;6.610;2023-05-07T02:18:03;14.20;99.90
16384;DHT22;8301;51.440;6.610;2023-05-07T02:20:30;14.20;99.90
16384;DHT22;8301;51.440;6.610;2023-05-07T02:22:57;14.20;99.90
16384;DHT22;8301;51.440;6.610;2023-05-07T02:25:24;14.30;99.90
16384;DHT22;8301;51.440;6.610;2023-05-07T02:27:51;14.30;99.90
16384;DHT22;8301;51.440;6.610;2023-05-07T02:30:17;14.30;99.90
16384;DHT22;8301;51.440;6.610;2023-05-07T02:32:46;14.30;99.90
16384;DHT22;8301;51.440;6.610;2023-05-07T02:35:13;14.20;99.90
16384;DHT22;8301;51.440;6.610;2023-05-07T02:37:40;14.20;99.90
16384;DHT22;8301;51.440;6.610;2023-05-07T02:40:07;14.20;99.90
16384;DHT22;8301;51.440;6.610;2023-05-07T02:42:33;14.20;99.90
16384;DHT22;8301;51.440;6.610;2023-05-07T02:45:00;14.20;99.90
16384;DHT22;8301;51.440;6.610;2023-05-07T02:47:27;14.20;99.90
16384;DHT22;8301;51.440;6.610;2023-05-07T02:49:54;14.10;99.90
16384;DHT22;8301;51.440;6.610;2023-05-07T02:52:22;14.10;99.90
16384;DHT22;8301;51.440;6.610;2023-05-07T02:54:49;14.10;99.90
16384;DHT22;8301;51.440;6.610;2023-05-07T02:57:16;14.10;99.90
16384;DHT22;8301;51.440;6.610;2023-05-07T02:59:43;14.10;99.90
16384;DHT22;8301;51.440;6.610;2023-05-07T03:02:10;14.00;99.90
16384;DHT22;8301;51.440;6.610;2023-05-07T03:04:37;14.00;99.90
16384;DHT22;8301;51.440;6.610;2023-05-07T03:07:04;14.00;99.90
16384;DHT22;8301;51.440;6.610;2023-05-07T03:09:31;14.00;99.90
16384;DHT22;8301;51.440;6.610;2023-05-07T03:11:57;14.00;99.90
16384;DHT22;8301;51.440;6.610;2023-05-07T03:14:24;14.00;99.90
16384;DHT22;8301;51.440;6.610;2023-05-07T03:16:51;14.00;99.90
16384;DHT22;8301;51.440;6.610;2023-05-07T03:19:18;14.10;99.90
16384;DHT22;8301;51.440;6.610;2023-05-07T03:21:45;14.00;99.90
16384;DHT22;8301;51.440;6.610;2023-05-07T03:24:11;14.00;99.90
16384;DHT22;8301;51.440;6.610;2023-05-07T03:26:38;14.00;99.90
16384;DHT22;8301;51.440;6.610;2023-05-07T03:29:05;14.00;99.90
16384;DHT22;8301;51.440;6.610;2023-05-07T03:31:32;14.00;99.90
16384;DHT22;8301;51.440;6.610;2023-05-07T03:33:59;14.00;99.90
16384;DHT22;8301;51.440;6.610;2023-05-07T03:36:25;14.00;99.90
16384;DHT22;8301;51.440;6.610;2023-05-07T03:38:56;14.00;99.90
16384;DHT22;8301;51.440;6.610;2023-05-07T03:41:23;14.00;99.90
16384;DHT22;8301;51.440;6.610;2023-05-07T03:43:50;14.00;99.90
16384;DHT22;8301;51.440;6.610;2023-05-07T03:46:17;13.90;99.90
16384;DHT22;8301;51.440;6.610;2023-05-07T03:48:44;13.90;99.90
16384;DHT22;8301;51.440;6.610;2023-05-07T03:51:11;13.90;99.90
16384;DHT22;8301;51.440;6.610;2023-05-07T03:53:38;13.90;99.90
16384;DHT22;8301;51.440;6.610;2023-05-07T03:56:04;13.90;99.90
16384;DHT22;8301;51.440;6.610;2023-05-07T03:58:31;13.80;99.90
16384;DHT22;8301;51.440;6.610;2023-05-07T04:00:58;13.80;99.90
16384;DHT22;8301;51.440;6.610;2023-05-07T04:03:25;13.80;99.90
16384;DHT22;8301;51.440;6.610;2023-05-07T04:05:52;13.90;99.90
16384;DHT22;8301;51.440;6.610;2023-05-07T04:08:18;13.80;99.90
16384;DHT22;8301;51.440;6.610;2023-05-07T04:10:45;13.80;99.90
16384;DHT22;8301;51.440;6.610;2023-05-07T04:13:12;13.80;99.90
16384;DHT22;8301;51.440;6.610;2023-05-07T04:15:39;13.80;99.90
16384;DHT22;8301;51.440;6.610;2023-05-07T04:18:06;13.80;99.90
16384;DHT22;8301;51.440;6.610;2023-05-07T04:20:33;13.80;99.90
16384;DHT22;8301;51.440;6.610;2023-05-07T04:23:02;13.80;99.90
16384;DHT22;8301;51.440;6.610;2023-05-07T04:25:29;13.80;99.90
16384;DHT22;8301;51.440;6.610;2023-05-07T04:27:56;13.80;99.90
16384;DHT22;8301;51.440;6.610;2023-05-07T04:30:23;13.80;99.90
16384;DHT22;8301;51.440;6.610;2023-05-07T04:32:50;13.80;99.90
16384;DHT22;8301;51.440;6.610;2023-05-07T04:35:17;13.80;99.90
16384;DHT22;8301;51.440;6.610;2023-05-07T04:37:44;13.90;99.90
16384;DHT22;8301;51.440;6.610;2023-05-07T04:40:11;13.80;99.90
16384;DHT22;8301;51.440;6.610;2023-05-07T04:42:38;13.80;99.90
16384;DHT22;8301;51.440;6.610;2023-05-07T04:45:05;13.80;99.90
16384;DHT22;8301;51.440;6.610;2023-05-07T04:47:32;13.80;99.90
16384;DHT22;8301;51.440;6.610;2023-05-07T04:49:58;13.80;99.90
16384;DHT22;8301;51.440;6.610;2023-05-07T04:52:25;13.90;99.90
16384;DHT22;8301;51.440;6.610;2023-05-07T04:54:52;13.90;99.90
16384;DHT22;8301;51.440;6.610;2023-05-07T04:57:20;13.90;99.90
16384;DHT22;8301;51.440;6.610;2023-05-07T04:59:47;13.90;99.90
16384;DHT22;8301;51.440;6.610;2023-05-07T05:02:14;13.90;99.90
16384;DHT22;8301;51.440;6.610;2023-05-07T05:04:41;13.90;99.90
16384;DHT22;8301;51.440;6.610;2023-05-07T05:07:07;14.00;99.90
16384;DHT22;8301;51.440;6.610;2023-05-07T05:09:34;14.00;99.90
16384;DHT22;8301;51.440;6.610;2023-05-07T05:12:02;14.00;99.90
16384;DHT22;8301;51.440;6.610;2023-05-07T05:14:29;14.00;99.90
16384;DHT22;8301;51.440;6.610;2023-05-07T05:16:57;14.10;99.90
16384;DHT22;8301;51.440;6.610;2023-05-07T05:19:23;14.20;99.90
16384;DHT22;8301;51.440;6.610;2023-05-07T05:21:50;14.30;99.90
16384;DHT22;8301;51.440;6.610;2023-05-07T05:24:17;14.40;99.90
16384;DHT22;8301;51.440;6.610;2023-05-07T05:26:44;14.50;99.90
16384;DHT22;8301;51.440;6.610;2023-05-07T05:29:11;14.70;99.90
16384;DHT22;8301;51.440;6.610;2023-05-07T05:31:38;14.80;99.90
16384;DHT22;8301;51.440;6.610;2023-05-07T05:34:05;15.00;99.90
16384;DHT22;8301;51.440;6.610;2023-05-07T05:36:31;15.20;99.90
16384;DHT22;8301;51.440;6.610;2023-05-07T05:38:58;15.30;99.90
16384;DHT22;8301;51.440;6.610;2023-05-07T05:41:25;15.30;99.90
16384;DHT22;8301;51.440;6.610;2023-05-07T05:43:52;15.50;99.90
16384;DHT22;8301;51.440;6.610;2023-05-07T05:46:19;15.60;99.90
16384;DHT22;8301;51.440;6.610;2023-05-07T05:48:46;15.70;99.90
16384;DHT22;8301;51.440;6.610;2023-05-07T05:51:12;15.80;99.90
16384;DHT22;8301;51.440;6.610;2023-05-07T05:53:39;16.00;99.90
16384;DHT22;8301;51.440;6.610;2023-05-07T05:56:06;16.10;99.90
16384;DHT22;8301;51.440;6.610;2023-05-07T05:58:33;16.20;99.90
16384;DHT22;8301;51.440;6.610;2023-05-07T06:01:00;16.30;99.90
16384;DHT22;8301;51.440;6.610;2023-05-07T06:03:28;16.30;99.90
16384;DHT22;8301;51.440;6.610;2023-05-07T06:05:56;16.50;99.90
16384;DHT22;8301;51.440;6.610;2023-05-07T06:08:23;16.50;99.90
16384;DHT22;8301;51.440;6.610;2023-05-07T06:10:50;16.40;99.90
16384;DHT22;8301;51.440;6.610;2023-05-07T06:13:16;16.40;99.90
16384;DHT22;8301;51.440;6.610;2023-05-07T06:15:43;16.40;99.90
16384;DHT22;8301;51.440;6.610;2023-05-07T06:18:10;16.40;99.90
16384;DHT22;8301;51.440;6.610;2023-05-07T06:20:40;16.30;99.90
16384;DHT22;8301;51.440;6.610;2023-05-07T06:23:07;16.40;99.90
16384;DHT22;8301;51.440;6.610;2023-05-07T06:25:34;16.40;99.90
16384;DHT22;8301;51.440;6.610;2023-05-07T06:28:00;16.30;99.90
16384;DHT22;8301;51.440;6.610;2023-05-07T06:30:27;16.20;99.90
16384;DHT22;8301;51.440;6.610;2023-05-07T06:32:54;16.20;99.90
16384;DHT22;8301;51.440;6.610;2023-05-07T06:35:29;16.30;99.90
16384;DHT22;8301;51.440;6.610;2023-05-07T06:37:58;16.30;99.90
16384;DHT22;8301;51.440;6.610;2023-05-07T06:40:24;16.40;99.90
16384;DHT22;8301;51.440;6.610;2023-05-07T06:42:51;16.40;99.90
16384;DHT22;8301;51.440;6.610;2023-05-07T06:45:19;16.40;99.90
16384;DHT22;8301;51.440;6.610;2023-05-07T06:47:46;16.40;99.90
16384;DHT22;8301;51.440;6.610;2023-05-07T06:50:12;16.50;99.90
16384;DHT22;8301;51.440;6.610;2023-05-07T06:52:42;16.50;99.90
16384;DHT22;8301;51.440;6.610;2023-05-07T06:55:09;16.50;99.90
16384;DHT22;8301;51.440;6.610;2023-05-07T06:57:37;16.40;99.90
16384;DHT22;8301;51.440;6.610;2023-05-07T07:00:04;16.40;99.90
16384;DHT22;8301;51.440;6.610;2023-05-07T07:02:33;16.40;99.90
16384;DHT22;8301;51.440;6.610;2023-05-07T07:05:00;16.30;99.90
16384;DHT22;8301;51.440;6.610;2023-05-07T07:07:27;16.30;99.90
16384;DHT22;8301;51.440;6.610;2023-05-07T07:09:54;16.50;99.90
16384;DHT22;8301;51.440;6.610;2023-05-07T07:12:21;16.40;99.90
16384;DHT22;8301;51.440;6.610;2023-05-07T07:14:49;16.50;99.90
16384;DHT22;8301;51.440;6.610;2023-05-07T07:17:17;16.60;99.90
16384;DHT22;8301;51.440;6.610;2023-05-07T07:19:44;16.70;99.90
16384;DHT22;8301;51.440;6.610;2023-05-07T07:22:11;16.80;99.90
16384;DHT22;8301;51.440;6.610;2023-05-07T07:24:37;16.90;99.90
16384;DHT22;8301;51.440;6.610;2023-05-07T07:27:04;17.10;99.90
16384;DHT22;8301;51.440;6.610;2023-05-07T07:29:31;17.10;99.90
16384;DHT22;8301;51.440;6.610;2023-05-07T07:31:58;17.20;99.90
16384;DHT22;8301;51.440;6.610;2023-05-07T07:34:24;17.30;99.90
16384;DHT22;8301;51.440;6.610;2023-05-07T07:36:51;17.20;99.90
16384;DHT22;8301;51.440;6.610;2023-05-07T07:39:18;17.20;99.90
16384;DHT22;8301;51.440;6.610;2023-05-07T07:41:47;17.30;99.90
16384;DHT22;8301;51.440;6.610;2023-05-07T07:44:14;17.40;99.90
16384;DHT22;8301;51.440;6.610;2023-05-07T07:46:42;17.50;99.90
16384;DHT22;8301;51.440;6.610;2023-05-07T07:49:14;17.60;99.90
16384;DHT22;8301;51.440;6.610;2023-05-07T07:51:41;17.70;25.40
16384;DHT22;8301;51.440;6.610;2023-05-07T07:54:08;17.90;1.00
16384;DHT22;8301;51.440;6.610;2023-05-07T07:56:35;18.20;1.00
16384;DHT22;8301;51.440;6.610;2023-05-07T07:59:02;18.30;1.00
16384;DHT22;8301;51.440;6.610;2023-05-07T08:01:33;18.20;99.90
16384;DHT22;8301;51.440;6.610;2023-05-07T08:03:57;18.20;1.00
16384;DHT22;8301;51.440;6.610;2023-05-07T08:06:28;18.40;1.00
16384;DHT22;8301;51.440;6.610;2023-05-07T08:08:56;18.50;1.00
16384;DHT22;8301;51.440;6.610;2023-05-07T08:11:23;18.40;1.00
16384;DHT22;8301;51.440;6.610;2023-05-07T08:13:51;18.40;1.00
16384;DHT22;8301;51.440;6.610;2023-05-07T08:16:18;18.40;1.00
16384;DHT22;8301;51.440;6.610;2023-05-07T08:18:45;18.60;1.00
16384;DHT22;8301;51.440;6.610;2023-05-07T08:21:12;18.60;1.00
16384;DHT22;8301;51.440;6.610;2023-05-07T08:23:39;18.40;99.90
16384;DHT22;8301;51.440;6.610;2023-05-07T08:26:07;18.50;1.00
16384;DHT22;8301;51.440;6.610;2023-05-07T08:28:34;18.60;1.00
16384;DHT22;8301;51.440;6.610;2023-05-07T08:31:01;18.70;99.90
16384;DHT22;8301;51.440;6.610;2023-05-07T08:33:27;18.80;1.00
16384;DHT22;8301;51.440;6.610;2023-05-07T08:35:54;18.90;1.00
16384;DHT22;8301;51.440;6.610;2023-05-07T08:38:21;19.00;1.00
16384;DHT22;8301;51.440;6.610;2023-05-07T08:40:48;19.00;99.90
16384;DHT22;8301;51.440;6.610;2023-05-07T08:43:16;19.10;1.00
16384;DHT22;8301;51.440;6.610;2023-05-07T08:45:43;19.10;99.90
16384;DHT22;8301;51.440;6.610;2023-05-07T08:48:18;19.20;99.90
16384;DHT22;8301;51.440;6.610;2023-05-07T08:50:41;19.30;99.90
16384;DHT22;8301;51.440;6.610;2023-05-07T08:53:08;19.60;99.90
16384;DHT22;8301;51.440;6.610;2023-05-07T08:55:35;19.80;1.00
16384;DHT22;8301;51.440;6.610;2023-05-07T08:58:01;19.70;1.00
16384;DHT22;8301;51.440;6.610;2023-05-07T09:00:28;19.90;1.00
16384;DHT22;8301;51.440;6.610;2023-05-07T09:02:55;19.90;1.00
16384;DHT22;8301;51.440;6.610;2023-05-07T09:05:22;19.90;1.00
16384;DHT22;8301;51.440;6.610;2023-05-07T09:07:49;20.10;1.00
16384;DHT22;8301;51.440;6.610;2023-05-07T09:10:16;20.40;99.90
16384;DHT22;8301;51.440;6.610;2023-05-07T09:12:43;20.60;99.90
16384;DHT22;8301;51.440;6.610;2023-05-07T09:15:10;20.90;99.90
16384;DHT22;8301;51.440;6.610;2023-05-07T09:17:37;21.20;1.00
16384;DHT22;8301;51.440;6.610;2023-05-07T09:20:05;21.30;1.00
16384;DHT22;8301;51.440;6.610;2023-05-07T09:22:32;21.30;1.00
16384;DHT22;8301;51.440;6.610;2023-05-07T09:24:59;21.30;1.00
16384;DHT22;8301;51.440;6.610;2023-05-07T09:27:26;21.40;1.00
16384;DHT22;8301;51.440;6.610;2023-05-07T09:29:53;21.40;1.00
16384;DHT22;8301;51.440;6.610;2023-05-07T09:32:20;21.60;1.00
16384;DHT22;8301;51.440;6.610;2023-05-07T09:34:46;21.90;1.00
16384;DHT22;8301;51.440;6.610;2023-05-07T09:39:44;22.40;1.00
16384;DHT22;8301;51.440;6.610;2023-05-07T09:42:12;21.90;99.90
16384;DHT22;8301;51.440;6.610;2023-05-07T09:44:43;21.60;99.90
16384;DHT22;8301;51.440;6.610;2023-05-07T09:47:10;21.70;1.00
16384;DHT22;8301;51.440;6.610;2023-05-07T09:49:39;21.70;1.00
16384;DHT22;8301;51.440;6.610;2023-05-07T09:52:07;21.80;1.00
16384;DHT22;8301;51.440;6.610;2023-05-07T09:54:37;22.00;99.90
16384;DHT22;8301;51.440;6.610;2023-05-07T09:57:04;22.20;99.90
16384;DHT22;8301;51.440;6.610;2023-05-07T09:59:32;22.50;99.90
16384;DHT22;8301;51.440;6.610;2023-05-07T10:01:59;22.70;99.90
16384;DHT22;8301;51.440;6.610;2023-05-07T10:04:27;23.10;99.90
16384;DHT22;8301;51.440;6.610;2023-05-07T10:06:54;22.70;99.90
16384;DHT22;8301;51.440;6.610;2023-05-07T10:09:22;22.40;99.90
16384;DHT22;8301;51.440;6.610;2023-05-07T10:11:49;22.10;99.90
16384;DHT22;8301;51.440;6.610;2023-05-07T10:14:16;22.40;99.90
16384;DHT22;8301;51.440;6.610;2023-05-07T10:16:43;22.40;99.90
16384;DHT22;8301;51.440;6.610;2023-05-07T10:19:11;22.40;99.90
16384;DHT22;8301;51.440;6.610;2023-05-07T10:21:44;22.60;99.90
16384;DHT22;8301;51.440;6.610;2023-05-07T10:24:10;22.60;77.60
16384;DHT22;8301;51.440;6.610;2023-05-07T10:26:40;22.50;46.20
16384;DHT22;8301;51.440;6.610;2023-05-07T10:34:25;22.70;60.00
16384;DHT22;8301;51.440;6.610;2023-05-07T10:36:52;22.90;99.60
16384;DHT22;8301;51.440;6.610;2023-05-07T10:39:20;23.00;99.70
16384;DHT22;8301;51.440;6.610;2023-05-07T10:41:48;22.90;99.90
16384;DHT22;8301;51.440;6.610;2023-05-07T10:44:25;23.10;99.90
16384;DHT22;8301;51.440;6.610;2023-05-07T10:47:03;22.80;87.10
16384;DHT22;8301;51.440;6.610;2023-05-07T10:49:24;22.90;99.90
16384;DHT22;8301;51.440;6.610;2023-05-07T10:54:36;22.90;60.90
16384;DHT22;8301;51.440;6.610;2023-05-07T10:59:49;22.60;96.30
16384;DHT22;8301;51.440;6.610;2023-05-07T11:02:17;22.70;99.90
16384;DHT22;8301;51.440;6.610;2023-05-07T11:04:44;22.70;99.90
16384;DHT22;8301;51.440;6.610;2023-05-07T11:07:21;23.00;99.90
16384;DHT22;8301;51.440;6.610;2023-05-07T11:15:11;23.30;81.40
16384;DHT22;8301;51.440;6.610;2023-05-07T11:17:55;23.50;55.70
16384;DHT22;8301;51.440;6.610;2023-05-07T11:20:54;23.60;19.90
16384;DHT22;8301;51.440;6.610;2023-05-07T11:26:08;23.90;24.30
16384;DHT22;8301;51.440;6.610;2023-05-07T11:28:44;23.90;1.00
16384;DHT22;8301;51.440;6.610;2023-05-07T11:31:11;24.00;1.00
16384;DHT22;8301;51.440;6.610;2023-05-07T11:33:39;23.80;42.10
16384;DHT22;8301;51.440;6.610;2023-05-07T11:36:09;23.80;1.00
16384;DHT22;8301;51.440;6.610;2023-05-07T11:38:37;23.50;46.50
16384;DHT22;8301;51.440;6.610;2023-05-07T11:41:10;23.70;1.00
16384;DHT22;8301;51.440;6.610;2023-05-07T11:44:01;23.60;33.30
16384;DHT22;8301;51.440;6.610;2023-05-07T11:46:10;23.00;23.10
16384;DHT22;8301;51.440;6.610;2023-05-07T11:48:39;23.10;35.80
16384;DHT22;8301;51.440;6.610;2023-05-07T11:51:09;23.10;16.90
16384;DHT22;8301;51.440;6.610;2023-05-07T11:53:41;22.90;65.70
16384;DHT22;8301;51.440;6.610;2023-05-07T11:56:11;22.90;99.90
16384;DHT22;8301;51.440;6.610;2023-05-07T11:58:40;23.00;99.90
16384;DHT22;8301;51.440;6.610;2023-05-07T12:01:09;22.50;99.90
16384;DHT22;8301;51.440;6.610;2023-05-07T12:03:39;22.40;99.90
16384;DHT22;8301;51.440;6.610;2023-05-07T12:06:09;22.40;99.90
16384;DHT22;8301;51.440;6.610;2023-05-07T12:08:39;22.60;99.90
16384;DHT22;8301;51.440;6.610;2023-05-07T12:11:13;22.30;99.90
16384;DHT22;8301;51.440;6.610;2023-05-07T12:13:38;22.10;99.90
16384;DHT22;8301;51.440;6.610;2023-05-07T12:16:06;22.30;99.90
16384;DHT22;8301;51.440;6.610;2023-05-07T12:18:35;22.20;99.90
16384;DHT22;8301;51.440;6.610;2023-05-07T12:21:06;22.20;99.90
16384;DHT22;8301;51.440;6.610;2023-05-07T12:23:35;22.20;99.90
16384;DHT22;8301;51.440;6.610;2023-05-07T12:26:03;22.20;99.90
16384;DHT22;8301;51.440;6.610;2023-05-07T12:28:35;22.10;99.90
16384;DHT22;8301;51.440;6.610;2023-05-07T12:31:02;22.20;99.90
16384;DHT22;8301;51.440;6.610;2023-05-07T12:36:00;22.30;1.00
16384;DHT22;8301;51.440;6.610;2023-05-07T12:38:33;22.10;1.00
16384;DHT22;8301;51.440;6.610;2023-05-07T12:40:59;22.30;99.90
16384;DHT22;8301;51.440;6.610;2023-05-07T12:43:27;22.50;1.00
16384;DHT22;8301;51.440;6.610;2023-05-07T12:46:03;22.30;99.90
16384;DHT22;8301;51.440;6.610;2023-05-07T12:48:30;22.30;99.90
16384;DHT22;8301;51.440;6.610;2023-05-07T12:51:00;22.20;99.90
16384;DHT22;8301;51.440;6.610;2023-05-07T12:53:29;22.10;99.90
16384;DHT22;8301;51.440;6.610;2023-05-07T12:55:59;22.10;99.90
16384;DHT22;8301;51.440;6.610;2023-05-07T12:58:29;22.10;99.90
16384;DHT22;8301;51.440;6.610;2023-05-07T13:00:58;22.20;99.90
16384;DHT22;8301;51.440;6.610;2023-05-07T13:03:31;21.90;99.90
16384;DHT22;8301;51.440;6.610;2023-05-07T13:06:04;22.00;99.90
16384;DHT22;8301;51.440;6.610;2023-05-07T13:08:34;21.90;99.90
16384;DHT22;8301;51.440;6.610;2023-05-07T13:11:04;21.70;99.90
16384;DHT22;8301;51.440;6.610;2023-05-07T13:13:33;21.60;99.90
16384;DHT22;8301;51.440;6.610;2023-05-07T13:16:02;21.60;99.90
16384;DHT22;8301;51.440;6.610;2023-05-07T13:18:32;21.60;99.90
16384;DHT22;8301;51.440;6.610;2023-05-07T13:21:01;21.50;99.90
16384;DHT22;8301;51.440;6.610;2023-05-07T13:23:29;21.60;99.90
16384;DHT22;8301;51.440;6.610;2023-05-07T13:25:56;21.40;99.90
16384;DHT22;8301;51.440;6.610;2023-05-07T13:28:24;21.40;99.90
16384;DHT22;8301;51.440;6.610;2023-05-07T13:30:53;21.50;99.90
16384;DHT22;8301;51.440;6.610;2023-05-07T13:33:21;21.60;99.90
16384;DHT22;8301;51.440;6.610;2023-05-07T13:35:48;21.50;99.90
16384;DHT22;8301;51.440;6.610;2023-05-07T13:38:15;21.40;99.90
16384;DHT22;8301;51.440;6.610;2023-05-07T13:40:43;21.30;99.90
16384;DHT22;8301;51.440;6.610;2023-05-07T13:43:10;21.40;1.00
16384;DHT22;8301;51.440;6.610;2023-05-07T13:45:37;21.40;99.90
16384;DHT22;8301;51.440;6.610;2023-05-07T13:48:04;21.30;99.90
16384;DHT22;8301;51.440;6.610;2023-05-07T13:50:32;21.40;99.90
16384;DHT22;8301;51.440;6.610;2023-05-07T13:52:59;21.40;1.00
16384;DHT22;8301;51.440;6.610;2023-05-07T13:55:29;21.50;1.00
16384;DHT22;8301;51.440;6.610;2023-05-07T13:57:59;21.50;1.00
16384;DHT22;8301;51.440;6.610;2023-05-07T14:00:24;21.40;1.00
16384;DHT22;8301;51.440;6.610;2023-05-07T14:02:52;21.30;1.00
16384;DHT22;8301;51.440;6.610;2023-05-07T14:05:19;21.30;1.00
16384;DHT22;8301;51.440;6.610;2023-05-07T14:07:52;21.20;1.00
16384;DHT22;8301;51.440;6.610;2023-05-07T14:10:21;21.10;1.00
16384;DHT22;8301;51.440;6.610;2023-05-07T14:12:54;21.00;20.70
16384;DHT22;8301;51.440;6.610;2023-05-07T14:15:27;21.10;1.00
16384;DHT22;8301;51.440;6.610;2023-05-07T14:17:54;21.20;1.00
16384;DHT22;8301;51.440;6.610;2023-05-07T14:20:21;21.10;99.90
16384;DHT22;8301;51.440;6.610;2023-05-07T14:22:47;21.10;99.90
16384;DHT22;8301;51.440;6.610;2023-05-07T14:25:14;21.00;1.00
16384;DHT22;8301;51.440;6.610;2023-05-07T14:27:41;20.90;99.90
16384;DHT22;8301;51.440;6.610;2023-05-07T14:30:08;20.80;99.90
16384;DHT22;8301;51.440;6.610;2023-05-07T14:32:35;20.70;99.90
16384;DHT22;8301;51.440;6.610;2023-05-07T14:35:02;20.60;1.00
16384;DHT22;8301;51.440;6.610;2023-05-07T14:37:29;20.50;1.00
16384;DHT22;8301;51.440;6.610;2023-05-07T14:39:55;20.60;1.00
16384;DHT22;8301;51.440;6.610;2023-05-07T14:42:22;20.70;1.00
16384;DHT22;8301;51.440;6.610;2023-05-07T14:44:49;20.60;1.00
16384;DHT22;8301;51.440;6.610;2023-05-07T14:47:16;20.50;1.00
16384;DHT22;8301;51.440;6.610;2023-05-07T14:49:43;20.30;1.00
16384;DHT22;8301;51.440;6.610;2023-05-07T14:52:09;20.20;99.90
16384;DHT22;8301;51.440;6.610;2023-05-07T14:54:36;19.90;1.00
16384;DHT22;8301;51.440;6.610;2023-05-07T14:57:04;19.90;40.90
16384;DHT22;8301;51.440;6.610;2023-05-07T14:59:31;19.80;99.90
16384;DHT22;8301;51.440;6.610;2023-05-07T15:01:58;19.60;4.10
16384;DHT22;8301;51.440;6.610;2023-05-07T15:04:25;19.40;99.90
16384;DHT22;8301;51.440;6.610;2023-05-07T15:06:52;19.40;1.00
16384;DHT22;8301;51.440;6.610;2023-05-07T15:09:20;19.40;99.90
16384;DHT22;8301;51.440;6.610;2023-05-07T15:11:47;19.40;1.00
16384;DHT22;8301;51.440;6.610;2023-05-07T15:14:14;19.30;1.00
16384;DHT22;8301;51.440;6.610;2023-05-07T15:16:41;19.30;63.40
16384;DHT22;8301;51.440;6.610;2023-05-07T15:19:08;19.20;1.00
16384;DHT22;8301;51.440;6.610;2023-05-07T15:21:35;19.30;1.00
16384;DHT22;8301;51.440;6.610;2023-05-07T15:24:02;19.10;1.00
16384;DHT22;8301;51.440;6.610;2023-05-07T15:26:29;19.30;1.00
16384;DHT22;8301;51.440;6.610;2023-05-07T15:28:56;19.30;1.00
16384;DHT22;8301;51.440;6.610;2023-05-07T15:31:23;19.30;99.90
16384;DHT22;8301;51.440;6.610;2023-05-07T15:33:50;19.30;99.90
16384;DHT22;8301;51.440;6.610;2023-05-07T15:36:22;19.30;1.00
16384;DHT22;8301;51.440;6.610;2023-05-07T15:38:49;19.30;1.00
16384;DHT22;8301;51.440;6.610;2023-05-07T15:41:16;19.30;1.00
16384;DHT22;8301;51.440;6.610;2023-05-07T15:43:49;19.40;1.00
16384;DHT22;8301;51.440;6.610;2023-05-07T15:46:11;19.50;1.00
16384;DHT22;8301;51.440;6.610;2023-05-07T15:48:38;19.60;1.00
16384;DHT22;8301;51.440;6.610;2023-05-07T15:51:06;19.60;99.90
16384;DHT22;8301;51.440;6.610;2023-05-07T15:53:33;19.80;99.90
16384;DHT22;8301;51.440;6.610;2023-05-07T15:56:00;19.90;99.90
16384;DHT22;8301;51.440;6.610;2023-05-07T15:58:27;19.90;99.90
16384;DHT22;8301;51.440;6.610;2023-05-07T16:00:54;20.00;99.90
16384;DHT22;8301;51.440;6.610;2023-05-07T16:03:21;19.90;99.90
16384;DHT22;8301;51.440;6.610;2023-05-07T16:05:47;20.00;99.90
16384;DHT22;8301;51.440;6.610;2023-05-07T16:08:14;19.90;99.90
16384;DHT22;8301;51.440;6.610;2023-05-07T16:10:41;19.90;1.00
16384;DHT22;8301;51.440;6.610;2023-05-07T16:13:08;19.70;99.90
16384;DHT22;8301;51.440;6.610;2023-05-07T16:15:35;19.70;99.90